Coosa, Georgia
Current Conditions -  °F | °C
As of 6:53 PM on Monday 22 Dec 2014 (Local Time) from KRMG Reporting Station
Light Rain Light Rain  
Wind Chill: 41°   Ceiling: 800
Heat Index: 46°   Visibility: 5mi
Dew Point: 44°   Wind: 12mph
Humidity: 93%   Direction: 140°SE
Pressure: 29.88"   Gusts: NA
Location:  34.25°N, 85.35°W
Report Text: KRMG 222353Z AUTO 14010KT 5SM -RA BR OVC008 08/07 A2988 RMK AO2 RAB46 SLP116 P0000 60013 T00780067 10089 20078 55003
Loading
Personal Weather Stations






























Interactive Weather Map New forecast layout! Learn more

10-Day Weather Forecast

Advertisements
Track Severe Weather on mobile